sensor_id;sensor_type;location;lat;lon;timestamp;P1;durP1;ratioP1;P2;durP2;ratioP2
14734;SDS011;7458;49.002;8.472;2023-05-17T00:02:25;1118.77;;;843.53;;
14734;SDS011;7458;49.002;8.472;2023-05-17T00:04:51;1138.72;;;803.78;;
14734;SDS011;7458;49.002;8.472;2023-05-17T00:07:17;1105.50;;;853.43;;
14734;SDS011;7458;49.002;8.472;2023-05-17T00:09:43;1136.10;;;803.70;;
14734;SDS011;7458;49.002;8.472;2023-05-17T00:12:09;1138.33;;;805.10;;
14734;SDS011;7458;49.002;8.472;2023-05-17T00:14:34;1122.03;;;824.37;;
14734;SDS011;7458;49.002;8.472;2023-05-17T00:17:00;1138.83;;;805.67;;
14734;SDS011;7458;49.002;8.472;2023-05-17T00:19:26;1130.10;;;809.67;;
14734;SDS011;7458;49.002;8.472;2023-05-17T00:21:52;1136.32;;;799.17;;
14734;SDS011;7458;49.002;8.472;2023-05-17T00:24:18;1122.97;;;814.30;;
14734;SDS011;7458;49.002;8.472;2023-05-17T00:26:44;1121.53;;;814.13;;
14734;SDS011;7458;49.002;8.472;2023-05-17T00:29:10;1124.97;;;821.67;;
14734;SDS011;7458;49.002;8.472;2023-05-17T00:31:36;1144.57;;;792.35;;
14734;SDS011;7458;49.002;8.472;2023-05-17T00:34:02;1147.30;;;810.13;;
14734;SDS011;7458;49.002;8.472;2023-05-17T00:36:27;1118.20;;;822.85;;
14734;SDS011;7458;49.002;8.472;2023-05-17T00:38:53;1115.88;;;824.35;;
14734;SDS011;7458;49.002;8.472;2023-05-17T00:41:19;1111.20;;;828.73;;
14734;SDS011;7458;49.002;8.472;2023-05-17T00:43:45;1120.80;;;823.23;;
14734;SDS011;7458;49.002;8.472;2023-05-17T00:46:11;1122.43;;;799.23;;
14734;SDS011;7458;49.002;8.472;2023-05-17T00:48:37;1118.97;;;790.23;;
14734;SDS011;7458;49.002;8.472;2023-05-17T00:51:03;1103.23;;;821.30;;
14734;SDS011;7458;49.002;8.472;2023-05-17T00:53:30;1114.87;;;808.73;;
14734;SDS011;7458;49.002;8.472;2023-05-17T00:55:56;1097.57;;;830.40;;
14734;SDS011;7458;49.002;8.472;2023-05-17T00:58:21;1116.37;;;800.10;;
14734;SDS011;7458;49.002;8.472;2023-05-17T01:00:48;1125.63;;;813.47;;
14734;SDS011;7458;49.002;8.472;2023-05-17T01:03:15;1115.10;;;801.17;;
14734;SDS011;7458;49.002;8.472;2023-05-17T01:05:41;1090.87;;;825.87;;
14734;SDS011;7458;49.002;8.472;2023-05-17T01:08:06;1111.70;;;809.27;;
14734;SDS011;7458;49.002;8.472;2023-05-17T01:13:42;1119.23;;;803.80;;
14734;SDS011;7458;49.002;8.472;2023-05-17T01:16:30;1085.77;;;838.87;;
14734;SDS011;7458;49.002;8.472;2023-05-17T01:19:13;1092.63;;;839.93;;
14734;SDS011;7458;49.002;8.472;2023-05-17T01:27:33;1105.67;;;806.10;;
14734;SDS011;7458;49.002;8.472;2023-05-17T01:30:05;1090.90;;;810.43;;
14734;SDS011;7458;49.002;8.472;2023-05-17T01:32:36;1108.70;;;819.63;;
14734;SDS011;7458;49.002;8.472;2023-05-17T01:35:06;1095.97;;;820.90;;
14734;SDS011;7458;49.002;8.472;2023-05-17T01:37:33;1089.67;;;831.47;;
14734;SDS011;7458;49.002;8.472;2023-05-17T01:39:58;1089.10;;;825.73;;
14734;SDS011;7458;49.002;8.472;2023-05-17T01:42:27;1106.77;;;801.13;;
14734;SDS011;7458;49.002;8.472;2023-05-17T01:48:25;1094.23;;;813.50;;
14734;SDS011;7458;49.002;8.472;2023-05-17T01:50:58;1085.97;;;835.80;;
14734;SDS011;7458;49.002;8.472;2023-05-17T01:53:32;1084.93;;;823.60;;
14734;SDS011;7458;49.002;8.472;2023-05-17T01:56:07;1089.17;;;826.63;;
14734;SDS011;7458;49.002;8.472;2023-05-17T01:58:45;1107.43;;;810.10;;
14734;SDS011;7458;49.002;8.472;2023-05-17T02:01:16;1108.10;;;801.43;;
14734;SDS011;7458;49.002;8.472;2023-05-17T02:03:47;1083.93;;;831.27;;
14734;SDS011;7458;49.002;8.472;2023-05-17T02:06:14;1097.10;;;830.97;;
14734;SDS011;7458;49.002;8.472;2023-05-17T02:08:41;1100.63;;;807.17;;
14734;SDS011;7458;49.002;8.472;2023-05-17T02:11:07;1100.23;;;796.43;;
14734;SDS011;7458;49.002;8.472;2023-05-17T02:13:33;1109.63;;;802.17;;
14734;SDS011;7458;49.002;8.472;2023-05-17T02:16:00;1123.10;;;806.80;;
14734;SDS011;7458;49.002;8.472;2023-05-17T02:18:27;1080.50;;;827.83;;
14734;SDS011;7458;49.002;8.472;2023-05-17T02:20:53;1083.13;;;824.37;;
14734;SDS011;7458;49.002;8.472;2023-05-17T02:23:19;1094.17;;;820.33;;
14734;SDS011;7458;49.002;8.472;2023-05-17T02:25:45;1116.40;;;788.83;;
14734;SDS011;7458;49.002;8.472;2023-05-17T02:28:11;1100.90;;;817.57;;
14734;SDS011;7458;49.002;8.472;2023-05-17T02:30:37;1087.40;;;818.60;;
14734;SDS011;7458;49.002;8.472;2023-05-17T02:33:05;1092.03;;;815.83;;
14734;SDS011;7458;49.002;8.472;2023-05-17T02:35:32;1108.73;;;795.53;;
14734;SDS011;7458;49.002;8.472;2023-05-17T02:37:58;1095.87;;;821.30;;
14734;SDS011;7458;49.002;8.472;2023-05-17T02:40:24;1093.77;;;817.80;;
14734;SDS011;7458;49.002;8.472;2023-05-17T02:42:50;1112.30;;;814.83;;
14734;SDS011;7458;49.002;8.472;2023-05-17T02:45:16;1100.17;;;808.37;;
14734;SDS011;7458;49.002;8.472;2023-05-17T02:47:42;1097.50;;;815.50;;
14734;SDS011;7458;49.002;8.472;2023-05-17T02:50:08;1112.50;;;803.03;;
14734;SDS011;7458;49.002;8.472;2023-05-17T02:52:34;1105.60;;;799.80;;
14734;SDS011;7458;49.002;8.472;2023-05-17T02:55:01;1100.27;;;788.73;;
14734;SDS011;7458;49.002;8.472;2023-05-17T02:57:27;1093.83;;;807.23;;
14734;SDS011;7458;49.002;8.472;2023-05-17T02:59:53;1110.60;;;790.70;;
14734;SDS011;7458;49.002;8.472;2023-05-17T03:02:18;1110.20;;;805.23;;
14734;SDS011;7458;49.002;8.472;2023-05-17T03:04:44;1112.30;;;799.13;;
14734;SDS011;7458;49.002;8.472;2023-05-17T03:07:10;1144.37;;;770.67;;
14734;SDS011;7458;49.002;8.472;2023-05-17T03:09:36;1126.37;;;792.03;;
14734;SDS011;7458;49.002;8.472;2023-05-17T03:12:02;1137.07;;;759.50;;
14734;SDS011;7458;49.002;8.472;2023-05-17T03:14:28;1109.47;;;786.63;;
14734;SDS011;7458;49.002;8.472;2023-05-17T03:16:55;1141.70;;;754.93;;
14734;SDS011;7458;49.002;8.472;2023-05-17T03:19:20;1147.17;;;768.37;;
14734;SDS011;7458;49.002;8.472;2023-05-17T03:21:46;1141.57;;;773.70;;
14734;SDS011;7458;49.002;8.472;2023-05-17T03:24:12;1115.73;;;790.27;;
14734;SDS011;7458;49.002;8.472;2023-05-17T03:26:38;1123.70;;;778.73;;
14734;SDS011;7458;49.002;8.472;2023-05-17T03:29:04;1111.23;;;780.47;;
14734;SDS011;7458;49.002;8.472;2023-05-17T03:31:29;1126.87;;;771.67;;
14734;SDS011;7458;49.002;8.472;2023-05-17T03:33:55;1117.67;;;777.47;;
14734;SDS011;7458;49.002;8.472;2023-05-17T03:36:22;1127.03;;;780.50;;
14734;SDS011;7458;49.002;8.472;2023-05-17T03:38:47;1107.40;;;800.33;;
14734;SDS011;7458;49.002;8.472;2023-05-17T03:41:13;1103.80;;;793.83;;
14734;SDS011;7458;49.002;8.472;2023-05-17T03:43:39;1101.60;;;790.47;;
14734;SDS011;7458;49.002;8.472;2023-05-17T03:46:05;1125.23;;;764.20;;
14734;SDS011;7458;49.002;8.472;2023-05-17T03:48:31;1092.13;;;790.10;;
14734;SDS011;7458;49.002;8.472;2023-05-17T03:50:57;1112.93;;;798.17;;
14734;SDS011;7458;49.002;8.472;2023-05-17T03:53:23;1103.83;;;778.87;;
14734;SDS011;7458;49.002;8.472;2023-05-17T03:55:49;1090.23;;;808.17;;
14734;SDS011;7458;49.002;8.472;2023-05-17T03:58:15;1092.03;;;803.80;;
14734;SDS011;7458;49.002;8.472;2023-05-17T04:00:41;1122.73;;;780.20;;
14734;SDS011;7458;49.002;8.472;2023-05-17T04:03:06;1125.73;;;771.40;;
14734;SDS011;7458;49.002;8.472;2023-05-17T04:05:32;1120.53;;;778.03;;
14734;SDS011;7458;49.002;8.472;2023-05-17T04:07:58;1099.50;;;794.40;;
14734;SDS011;7458;49.002;8.472;2023-05-17T04:10:25;1113.37;;;789.47;;
14734;SDS011;7458;49.002;8.472;2023-05-17T04:12:51;1099.13;;;806.50;;
14734;SDS011;7458;49.002;8.472;2023-05-17T04:15:16;1132.83;;;759.70;;
14734;SDS011;7458;49.002;8.472;2023-05-17T04:17:42;1112.17;;;794.80;;
14734;SDS011;7458;49.002;8.472;2023-05-17T04:20:08;1095.97;;;797.13;;
14734;SDS011;7458;49.002;8.472;2023-05-17T04:22:35;1096.87;;;806.50;;
14734;SDS011;7458;49.002;8.472;2023-05-17T04:25:00;1017.97;;;910.53;;
14734;SDS011;7458;49.002;8.472;2023-05-17T04:27:26;1091.10;;;813.30;;
14734;SDS011;7458;49.002;8.472;2023-05-17T04:29:52;1094.40;;;804.03;;
14734;SDS011;7458;49.002;8.472;2023-05-17T04:32:18;1105.93;;;804.40;;
14734;SDS011;7458;49.002;8.472;2023-05-17T04:34:45;1112.83;;;789.53;;
14734;SDS011;7458;49.002;8.472;2023-05-17T04:37:12;1110.53;;;790.87;;
14734;SDS011;7458;49.002;8.472;2023-05-17T04:39:37;1121.00;;;757.10;;
14734;SDS011;7458;49.002;8.472;2023-05-17T04:42:04;1104.40;;;791.00;;
14734;SDS011;7458;49.002;8.472;2023-05-17T04:44:30;1116.60;;;776.77;;
14734;SDS011;7458;49.002;8.472;2023-05-17T04:46:56;1109.53;;;777.83;;
14734;SDS011;7458;49.002;8.472;2023-05-17T04:49:22;1090.77;;;806.50;;
14734;SDS011;7458;49.002;8.472;2023-05-17T04:51:49;1085.63;;;814.80;;
14734;SDS011;7458;49.002;8.472;2023-05-17T04:54:15;1079.23;;;821.77;;
14734;SDS011;7458;49.002;8.472;2023-05-17T04:56:41;1081.60;;;819.57;;
14734;SDS011;7458;49.002;8.472;2023-05-17T04:59:07;1094.97;;;784.23;;
14734;SDS011;7458;49.002;8.472;2023-05-17T05:01:33;1097.17;;;803.50;;
14734;SDS011;7458;49.002;8.472;2023-05-17T05:03:59;1114.30;;;791.10;;
14734;SDS011;7458;49.002;8.472;2023-05-17T05:06:30;1100.47;;;795.30;;
14734;SDS011;7458;49.002;8.472;2023-05-17T05:08:57;1097.57;;;799.83;;
14734;SDS011;7458;49.002;8.472;2023-05-17T05:11:28;1100.07;;;810.07;;
14734;SDS011;7458;49.002;8.472;2023-05-17T05:13:54;1085.63;;;819.50;;
14734;SDS011;7458;49.002;8.472;2023-05-17T05:16:20;1096.17;;;800.83;;
14734;SDS011;7458;49.002;8.472;2023-05-17T05:18:46;1137.53;;;782.73;;
14734;SDS011;7458;49.002;8.472;2023-05-17T05:21:12;1115.00;;;799.50;;
14734;SDS011;7458;49.002;8.472;2023-05-17T05:23:38;1136.23;;;785.50;;
14734;SDS011;7458;49.002;8.472;2023-05-17T05:26:03;1109.37;;;800.60;;
14734;SDS011;7458;49.002;8.472;2023-05-17T05:28:29;1109.60;;;809.07;;
14734;SDS011;7458;49.002;8.472;2023-05-17T05:30:56;1123.67;;;787.10;;
14734;SDS011;7458;49.002;8.472;2023-05-17T05:33:25;1116.37;;;811.27;;
14734;SDS011;7458;49.002;8.472;2023-05-17T05:35:51;1110.90;;;811.73;;
14734;SDS011;7458;49.002;8.472;2023-05-17T05:38:17;1106.27;;;823.87;;
14734;SDS011;7458;49.002;8.472;2023-05-17T05:40:47;1107.07;;;816.17;;
14734;SDS011;7458;49.002;8.472;2023-05-17T05:43:13;1157.85;;;780.38;;
14734;SDS011;7458;49.002;8.472;2023-05-17T05:45:39;1160.13;;;795.83;;
14734;SDS011;7458;49.002;8.472;2023-05-17T05:48:10;1135.55;;;822.78;;
14734;SDS011;7458;49.002;8.472;2023-05-17T05:50:37;1135.13;;;817.80;;
14734;SDS011;7458;49.002;8.472;2023-05-17T05:53:05;1164.85;;;784.28;;
14734;SDS011;7458;49.002;8.472;2023-05-17T05:55:31;1154.68;;;780.45;;
14734;SDS011;7458;49.002;8.472;2023-05-17T05:57:57;1154.90;;;792.40;;
14734;SDS011;7458;49.002;8.472;2023-05-17T06:00:23;1155.60;;;788.70;;
14734;SDS011;7458;49.002;8.472;2023-05-17T06:02:49;1132.00;;;834.30;;
14734;SDS011;7458;49.002;8.472;2023-05-17T06:05:17;1126.80;;;833.37;;
14734;SDS011;7458;49.002;8.472;2023-05-17T06:07:43;1125.97;;;831.47;;
14734;SDS011;7458;49.002;8.472;2023-05-17T06:10:09;1161.45;;;806.55;;
14734;SDS011;7458;49.002;8.472;2023-05-17T06:12:35;1164.35;;;813.47;;
14734;SDS011;7458;49.002;8.472;2023-05-17T06:15:01;1140.55;;;860.88;;
14734;SDS011;7458;49.002;8.472;2023-05-17T06:17:27;1155.32;;;907.67;;
14734;SDS011;7458;49.002;8.472;2023-05-17T06:19:53;1161.82;;;978.33;;
14734;SDS011;7458;49.002;8.472;2023-05-17T06:22:20;1210.60;;;907.85;;
14734;SDS011;7458;49.002;8.472;2023-05-17T06:24:46;1190.07;;;999.90;;
14734;SDS011;7458;49.002;8.472;2023-05-17T06:27:12;1218.57;;;999.90;;
14734;SDS011;7458;49.002;8.472;2023-05-17T06:29:37;1216.57;;;961.25;;
14734;SDS011;7458;49.002;8.472;2023-05-17T06:32:03;1211.63;;;999.90;;
14734;SDS011;7458;49.002;8.472;2023-05-17T06:34:30;1226.25;;;937.03;;
14734;SDS011;7458;49.002;8.472;2023-05-17T06:36:55;1218.95;;;872.65;;
14734;SDS011;7458;49.002;8.472;2023-05-17T06:39:22;1206.53;;;941.75;;
14734;SDS011;7458;49.002;8.472;2023-05-17T06:41:48;1159.88;;;928.90;;
14734;SDS011;7458;49.002;8.472;2023-05-17T06:44:14;1152.03;;;999.90;;
14734;SDS011;7458;49.002;8.472;2023-05-17T06:46:39;1231.35;;;999.90;;
14734;SDS011;7458;49.002;8.472;2023-05-17T06:49:05;1168.10;;;945.65;;
14734;SDS011;7458;49.002;8.472;2023-05-17T06:51:31;1150.00;;;999.90;;
14734;SDS011;7458;49.002;8.472;2023-05-17T06:53:56;1149.57;;;950.38;;
14734;SDS011;7458;49.002;8.472;2023-05-17T06:56:22;1187.78;;;999.90;;
14734;SDS011;7458;49.002;8.472;2023-05-17T06:58:48;1151.70;;;912.55;;
14734;SDS011;7458;49.002;8.472;2023-05-17T07:01:14;1123.90;;;998.45;;
14734;SDS011;7458;49.002;8.472;2023-05-17T07:03:40;1166.22;;;905.72;;
14734;SDS011;7458;49.002;8.472;2023-05-17T07:06:07;1161.00;;;924.17;;
14734;SDS011;7458;49.002;8.472;2023-05-17T07:08:32;1154.38;;;901.88;;
14734;SDS011;7458;49.002;8.472;2023-05-17T07:10:58;1110.15;;;987.50;;
14734;SDS011;7458;49.002;8.472;2023-05-17T07:13:25;1148.35;;;906.75;;
14734;SDS011;7458;49.002;8.472;2023-05-17T07:15:50;1137.03;;;911.65;;
14734;SDS011;7458;49.002;8.472;2023-05-17T07:18:16;1134.15;;;999.90;;
14734;SDS011;7458;49.002;8.472;2023-05-17T07:20:42;1125.93;;;999.85;;
14734;SDS011;7458;49.002;8.472;2023-05-17T07:23:07;1159.90;;;875.50;;
14734;SDS011;7458;49.002;8.472;2023-05-17T07:25:33;1172.95;;;883.22;;
14734;SDS011;7458;49.002;8.472;2023-05-17T07:28:02;1169.65;;;857.67;;
14734;SDS011;7458;49.002;8.472;2023-05-17T07:30:29;1132.07;;;976.20;;
14734;SDS011;7458;49.002;8.472;2023-05-17T07:32:55;1131.28;;;989.60;;
14734;SDS011;7458;49.002;8.472;2023-05-17T07:35:21;1161.38;;;884.58;;
14734;SDS011;7458;49.002;8.472;2023-05-17T07:37:46;1135.35;;;886.42;;
14734;SDS011;7458;49.002;8.472;2023-05-17T07:40:12;1139.00;;;890.85;;
14734;SDS011;7458;49.002;8.472;2023-05-17T07:42:38;1102.50;;;972.38;;
14734;SDS011;7458;49.002;8.472;2023-05-17T07:45:04;1105.95;;;951.85;;
14734;SDS011;7458;49.002;8.472;2023-05-17T07:47:30;1122.65;;;935.75;;
14734;SDS011;7458;49.002;8.472;2023-05-17T07:49:56;1184.65;;;856.38;;
14734;SDS011;7458;49.002;8.472;2023-05-17T07:52:22;1126.82;;;931.80;;
14734;SDS011;7458;49.002;8.472;2023-05-17T07:54:47;1133.57;;;951.22;;
14734;SDS011;7458;49.002;8.472;2023-05-17T07:57:13;1195.90;;;857.40;;
14734;SDS011;7458;49.002;8.472;2023-05-17T07:59:39;1110.53;;;945.83;;
14734;SDS011;7458;49.002;8.472;2023-05-17T08:02:05;1154.57;;;873.88;;
14734;SDS011;7458;49.002;8.472;2023-05-17T08:04:31;1206.38;;;924.03;;
14734;SDS011;7458;49.002;8.472;2023-05-17T08:06:56;1218.03;;;973.42;;
14734;SDS011;7458;49.002;8.472;2023-05-17T08:09:24;1217.13;;;949.50;;
14734;SDS011;7458;49.002;8.472;2023-05-17T08:11:50;1233.55;;;999.90;;
14734;SDS011;7458;49.002;8.472;2023-05-17T08:14:16;1227.35;;;999.90;;
14734;SDS011;7458;49.002;8.472;2023-05-17T08:16:45;1220.13;;;999.90;;
14734;SDS011;7458;49.002;8.472;2023-05-17T08:19:11;1281.32;;;999.90;;
14734;SDS011;7458;49.002;8.472;2023-05-17T08:21:40;1152.18;;;987.95;;
14734;SDS011;7458;49.002;8.472;2023-05-17T08:24:07;1176.35;;;999.90;;
14734;SDS011;7458;49.002;8.472;2023-05-17T08:26:33;1221.65;;;982.05;;
14734;SDS011;7458;49.002;8.472;2023-05-17T08:29:00;1220.47;;;994.53;;
14734;SDS011;7458;49.002;8.472;2023-05-17T08:31:27;1227.90;;;999.90;;
14734;SDS011;7458;49.002;8.472;2023-05-17T08:33:53;1221.55;;;999.90;;
14734;SDS011;7458;49.002;8.472;2023-05-17T08:36:19;1228.20;;;999.90;;
14734;SDS011;7458;49.002;8.472;2023-05-17T08:38:45;1289.10;;;999.90;;
14734;SDS011;7458;49.002;8.472;2023-05-17T08:41:11;1220.80;;;999.90;;
14734;SDS011;7458;49.002;8.472;2023-05-17T08:43:37;1221.65;;;999.65;;
14734;SDS011;7458;49.002;8.472;2023-05-17T08:46:04;1299.15;;;999.90;;
14734;SDS011;7458;49.002;8.472;2023-05-17T08:48:30;1294.25;;;999.90;;
14734;SDS011;7458;49.002;8.472;2023-05-17T08:51:00;1224.13;;;999.90;;
14734;SDS011;7458;49.002;8.472;2023-05-17T08:53:27;1219.82;;;999.90;;
14734;SDS011;7458;49.002;8.472;2023-05-17T08:55:56;1268.68;;;999.90;;
14734;SDS011;7458;49.002;8.472;2023-05-17T08:58:25;1226.07;;;999.90;;
14734;SDS011;7458;49.002;8.472;2023-05-17T09:00:57;1187.22;;;999.90;;
14734;SDS011;7458;49.002;8.472;2023-05-17T09:03:24;1215.53;;;936.65;;
14734;SDS011;7458;49.002;8.472;2023-05-17T09:05:51;1155.40;;;993.55;;
14734;SDS011;7458;49.002;8.472;2023-05-17T09:08:21;1192.88;;;999.90;;
14734;SDS011;7458;49.002;8.472;2023-05-17T09:10:47;1165.60;;;999.90;;
14734;SDS011;7458;49.002;8.472;2023-05-17T09:13:14;1180.45;;;999.90;;
14734;SDS011;7458;49.002;8.472;2023-05-17T09:15:41;1222.05;;;999.90;;
14734;SDS011;7458;49.002;8.472;2023-05-17T09:18:09;1219.68;;;999.90;;
14734;SDS011;7458;49.002;8.472;2023-05-17T09:20:39;1211.03;;;940.05;;
14734;SDS011;7458;49.002;8.472;2023-05-17T09:23:08;1215.72;;;946.67;;
14734;SDS011;7458;49.002;8.472;2023-05-17T09:25:37;1165.18;;;999.90;;
14734;SDS011;7458;49.002;8.472;2023-05-17T09:28:11;1222.28;;;964.83;;
14734;SDS011;7458;49.002;8.472;2023-05-17T09:30:37;1239.03;;;999.90;;
14734;SDS011;7458;49.002;8.472;2023-05-17T09:33:06;1250.78;;;999.90;;
14734;SDS011;7458;49.002;8.472;2023-05-17T09:35:34;1220.82;;;999.20;;
14734;SDS011;7458;49.002;8.472;2023-05-17T09:38:08;1213.50;;;997.33;;
14734;SDS011;7458;49.002;8.472;2023-05-17T09:40:38;1263.80;;;999.90;;
14734;SDS011;7458;49.002;8.472;2023-05-17T09:43:05;1258.13;;;999.90;;
14734;SDS011;7458;49.002;8.472;2023-05-17T09:45:32;1216.60;;;999.90;;
14734;SDS011;7458;49.002;8.472;2023-05-17T09:50:48;1348.75;;;999.90;;
14734;SDS011;7458;49.002;8.472;2023-05-17T09:53:29;1209.20;;;999.90;;
14734;SDS011;7458;49.002;8.472;2023-05-17T09:55:57;1231.53;;;999.90;;
14734;SDS011;7458;49.002;8.472;2023-05-17T09:58:25;1216.43;;;999.90;;
14734;SDS011;7458;49.002;8.472;2023-05-17T10:00:54;1255.15;;;999.90;;
14734;SDS011;7458;49.002;8.472;2023-05-17T10:03:33;1216.63;;;999.90;;
14734;SDS011;7458;49.002;8.472;2023-05-17T10:06:07;1268.70;;;999.90;;
14734;SDS011;7458;49.002;8.472;2023-05-17T10:08:34;1239.10;;;999.90;;
14734;SDS011;7458;49.002;8.472;2023-05-17T10:11:06;1208.53;;;999.90;;
14734;SDS011;7458;49.002;8.472;2023-05-17T10:16:13;1185.32;;;845.70;;
14734;SDS011;7458;49.002;8.472;2023-05-17T10:18:40;1187.55;;;859.22;;
14734;SDS011;7458;49.002;8.472;2023-05-17T10:21:07;1195.47;;;878.65;;
14734;SDS011;7458;49.002;8.472;2023-05-17T10:23:34;1182.50;;;840.30;;
14734;SDS011;7458;49.002;8.472;2023-05-17T10:26:02;1145.65;;;953.38;;
14734;SDS011;7458;49.002;8.472;2023-05-17T10:28:30;1150.70;;;954.65;;
14734;SDS011;7458;49.002;8.472;2023-05-17T10:30:57;1145.30;;;938.58;;
14734;SDS011;7458;49.002;8.472;2023-05-17T10:33:25;1183.65;;;832.05;;
14734;SDS011;7458;49.002;8.472;2023-05-17T10:35:51;1190.57;;;852.88;;
14734;SDS011;7458;49.002;8.472;2023-05-17T10:38:19;1191.80;;;856.90;;
14734;SDS011;7458;49.002;8.472;2023-05-17T10:40:47;1144.00;;;957.05;;
14734;SDS011;7458;49.002;8.472;2023-05-17T10:43:16;1184.30;;;851.42;;
14734;SDS011;7458;49.002;8.472;2023-05-17T10:45:44;1129.80;;;920.38;;
14734;SDS011;7458;49.002;8.472;2023-05-17T10:48:12;1177.43;;;840.72;;
14734;SDS011;7458;49.002;8.472;2023-05-17T10:50:40;1126.18;;;915.15;;
14734;SDS011;7458;49.002;8.472;2023-05-17T10:53:11;1120.45;;;901.33;;
14734;SDS011;7458;49.002;8.472;2023-05-17T10:55:40;1128.90;;;906.63;;
14734;SDS011;7458;49.002;8.472;2023-05-17T11:00:51;1124.32;;;921.28;;
14734;SDS011;7458;49.002;8.472;2023-05-17T11:03:20;1163.32;;;841.08;;
14734;SDS011;7458;49.002;8.472;2023-05-17T11:06:35;1163.60;;;857.72;;
14734;SDS011;7458;49.002;8.472;2023-05-17T11:09:04;1162.05;;;845.78;;
14734;SDS011;7458;49.002;8.472;2023-05-17T11:11:32;1158.97;;;847.42;;
14734;SDS011;7458;49.002;8.472;2023-05-17T11:14:00;1120.20;;;925.75;;
14734;SDS011;7458;49.002;8.472;2023-05-17T11:16:36;1152.97;;;858.88;;
14734;SDS011;7458;49.002;8.472;2023-05-17T11:19:09;1163.40;;;839.33;;
14734;SDS011;7458;49.002;8.472;2023-05-17T11:21:45;1116.20;;;905.50;;
14734;SDS011;7458;49.002;8.472;2023-05-17T11:24:12;1112.15;;;938.60;;
14734;SDS011;7458;49.002;8.472;2023-05-17T11:26:49;1101.65;;;922.83;;
14734;SDS011;7458;49.002;8.472;2023-05-17T11:29:16;1153.80;;;862.30;;
14734;SDS011;7458;49.002;8.472;2023-05-17T11:31:42;1142.75;;;856.90;;
14734;SDS011;7458;49.002;8.472;2023-05-17T11:34:10;1155.93;;;854.10;;
14734;SDS011;7458;49.002;8.472;2023-05-17T11:36:50;1113.72;;;932.53;;
14734;SDS011;7458;49.002;8.472;2023-05-17T11:39:21;1151.75;;;846.38;;
14734;SDS011;7458;49.002;8.472;2023-05-17T11:41:51;1160.75;;;838.13;;
14734;SDS011;7458;49.002;8.472;2023-05-17T11:44:23;1166.47;;;832.15;;
14734;SDS011;7458;49.002;8.472;2023-05-17T11:47:12;1179.93;;;878.67;;
14734;SDS011;7458;49.002;8.472;2023-05-17T11:49:38;1179.05;;;878.30;;
14734;SDS011;7458;49.002;8.472;2023-05-17T11:52:05;1198.78;;;947.60;;
14734;SDS011;7458;49.002;8.472;2023-05-17T11:54:32;1150.60;;;999.90;;
14734;SDS011;7458;49.002;8.472;2023-05-17T11:56:59;1300.78;;;999.90;;
14734;SDS011;7458;49.002;8.472;2023-05-17T11:59:27;1196.80;;;999.90;;
14734;SDS011;7458;49.002;8.472;2023-05-17T12:01:53;1210.45;;;999.90;;
14734;SDS011;7458;49.002;8.472;2023-05-17T12:04:23;1313.97;;;999.90;;
14734;SDS011;7458;49.002;8.472;2023-05-17T12:06:51;1322.88;;;999.90;;
14734;SDS011;7458;49.002;8.472;2023-05-17T12:09:19;1328.20;;;999.90;;
14734;SDS011;7458;49.002;8.472;2023-05-17T12:11:46;1206.82;;;999.90;;
14734;SDS011;7458;49.002;8.472;2023-05-17T12:14:15;1287.68;;;999.90;;
14734;SDS011;7458;49.002;8.472;2023-05-17T12:16:49;1281.60;;;999.90;;
14734;SDS011;7458;49.002;8.472;2023-05-17T12:19:20;1253.80;;;999.90;;
14734;SDS011;7458;49.002;8.472;2023-05-17T12:21:48;1214.53;;;999.90;;
14734;SDS011;7458;49.002;8.472;2023-05-17T12:24:15;1173.50;;;939.30;;
14734;SDS011;7458;49.002;8.472;2023-05-17T12:26:42;1125.53;;;987.92;;
14734;SDS011;7458;49.002;8.472;2023-05-17T12:29:10;1184.15;;;933.58;;
14734;SDS011;7458;49.002;8.472;2023-05-17T12:31:47;1158.55;;;999.90;;
14734;SDS011;7458;49.002;8.472;2023-05-17T12:34:17;1142.13;;;998.72;;
14734;SDS011;7458;49.002;8.472;2023-05-17T12:36:43;1137.90;;;991.97;;
14734;SDS011;7458;49.002;8.472;2023-05-17T12:39:10;1184.85;;;920.08;;
14734;SDS011;7458;49.002;8.472;2023-05-17T12:41:38;1124.35;;;937.45;;
14734;SDS011;7458;49.002;8.472;2023-05-17T12:44:06;1120.07;;;933.70;;
14734;SDS011;7458;49.002;8.472;2023-05-17T12:46:33;1120.30;;;943.17;;
14734;SDS011;7458;49.002;8.472;2023-05-17T12:49:00;1166.32;;;849.08;;
14734;SDS011;7458;49.002;8.472;2023-05-17T12:51:42;1175.50;;;882.70;;
14734;SDS011;7458;49.002;8.472;2023-05-17T12:54:30;1130.90;;;961.08;;
14734;SDS011;7458;49.002;8.472;2023-05-17T13:01:50;1141.55;;;987.75;;
14734;SDS011;7458;49.002;8.472;2023-05-17T13:04:19;1169.78;;;859.97;;
14734;SDS011;7458;49.002;8.472;2023-05-17T13:06:57;1123.68;;;943.65;;
14734;SDS011;7458;49.002;8.472;2023-05-17T13:09:27;1178.07;;;871.53;;
14734;SDS011;7458;49.002;8.472;2023-05-17T13:14:39;1177.38;;;868.80;;
14734;SDS011;7458;49.002;8.472;2023-05-17T13:17:11;1121.15;;;941.97;;
14734;SDS011;7458;49.002;8.472;2023-05-17T13:19:45;1103.50;;;949.45;;
14734;SDS011;7458;49.002;8.472;2023-05-17T13:22:12;1118.40;;;955.42;;
14734;SDS011;7458;49.002;8.472;2023-05-17T13:24:41;1147.82;;;882.33;;
14734;SDS011;7458;49.002;8.472;2023-05-17T13:27:09;1110.18;;;944.33;;
14734;SDS011;7458;49.002;8.472;2023-05-17T13:29:36;1117.22;;;945.25;;
14734;SDS011;7458;49.002;8.472;2023-05-17T13:32:07;1160.97;;;847.90;;
14734;SDS011;7458;49.002;8.472;2023-05-17T13:34:35;1165.93;;;842.05;;
14734;SDS011;7458;49.002;8.472;2023-05-17T13:37:02;1168.75;;;851.20;;
14734;SDS011;7458;49.002;8.472;2023-05-17T13:39:28;1190.82;;;914.83;;
14734;SDS011;7458;49.002;8.472;2023-05-17T13:41:54;1146.90;;;994.15;;
14734;SDS011;7458;49.002;8.472;2023-05-17T13:44:20;1177.90;;;890.20;;
14734;SDS011;7458;49.002;8.472;2023-05-17T13:46:45;1171.88;;;898.38;;
14734;SDS011;7458;49.002;8.472;2023-05-17T13:49:11;1184.53;;;903.28;;
14734;SDS011;7458;49.002;8.472;2023-05-17T13:51:38;1185.28;;;878.20;;
14734;SDS011;7458;49.002;8.472;2023-05-17T13:54:04;1191.30;;;912.83;;
14734;SDS011;7458;49.002;8.472;2023-05-17T13:56:31;1187.75;;;893.33;;
14734;SDS011;7458;49.002;8.472;2023-05-17T13:58:57;1200.82;;;952.88;;
14734;SDS011;7458;49.002;8.472;2023-05-17T14:01:23;1195.53;;;937.45;;
14734;SDS011;7458;49.002;8.472;2023-05-17T14:03:54;1095.22;;;963.05;;
14734;SDS011;7458;49.002;8.472;2023-05-17T14:06:21;1107.38;;;946.95;;
14734;SDS011;7458;49.002;8.472;2023-05-17T14:08:46;1143.72;;;875.08;;
14734;SDS011;7458;49.002;8.472;2023-05-17T14:11:13;1094.40;;;971.65;;
14734;SDS011;7458;49.002;8.472;2023-05-17T14:13:39;1158.47;;;855.90;;
14734;SDS011;7458;49.002;8.472;2023-05-17T14:16:06;1154.93;;;899.08;;
14734;SDS011;7458;49.002;8.472;2023-05-17T14:18:32;1146.65;;;971.42;;
14734;SDS011;7458;49.002;8.472;2023-05-17T14:20:57;1118.60;;;995.58;;
14734;SDS011;7458;49.002;8.472;2023-05-17T14:23:27;1160.88;;;845.63;;
14734;SDS011;7458;49.002;8.472;2023-05-17T14:25:53;1159.45;;;846.85;;
14734;SDS011;7458;49.002;8.472;2023-05-17T14:28:21;1130.93;;;947.30;;